sensor_id;sensor_type;location;lat;lon;timestamp;pressure;altitude;pressure_sealevel;temperature
12007;BMP180;6062;47.294;12.182;2023-05-07T00:00:04;80493.00;;;11.60
12007;BMP180;6062;47.294;12.182;2023-05-07T00:02:33;80491.00;;;11.60
12007;BMP180;6062;47.294;12.182;2023-05-07T00:04:59;80491.00;;;11.60
12007;BMP180;6062;47.294;12.182;2023-05-07T00:07:25;80493.00;;;11.60
12007;BMP180;6062;47.294;12.182;2023-05-07T00:09:51;80489.00;;;11.60
12007;BMP180;6062;47.294;12.182;2023-05-07T00:12:16;80497.00;;;11.70
12007;BMP180;6062;47.294;12.182;2023-05-07T00:14:42;80497.00;;;11.70
12007;BMP180;6062;47.294;12.182;2023-05-07T00:17:08;80491.00;;;11.70
12007;BMP180;6062;47.294;12.182;2023-05-07T00:19:33;80493.00;;;11.70
12007;BMP180;6062;47.294;12.182;2023-05-07T00:21:59;80485.00;;;11.60
12007;BMP180;6062;47.294;12.182;2023-05-07T00:24:25;80492.00;;;11.60
12007;BMP180;6062;47.294;12.182;2023-05-07T00:26:50;80494.00;;;11.60
12007;BMP180;6062;47.294;12.182;2023-05-07T00:29:18;80491.00;;;11.70
12007;BMP180;6062;47.294;12.182;2023-05-07T00:31:44;80493.00;;;11.70
12007;BMP180;6062;47.294;12.182;2023-05-07T00:34:09;80484.00;;;11.70
12007;BMP180;6062;47.294;12.182;2023-05-07T00:36:35;80487.00;;;11.70
12007;BMP180;6062;47.294;12.182;2023-05-07T00:39:01;80483.00;;;11.70
12007;BMP180;6062;47.294;12.182;2023-05-07T00:41:29;80484.00;;;11.70
12007;BMP180;6062;47.294;12.182;2023-05-07T00:43:56;80476.00;;;11.70
12007;BMP180;6062;47.294;12.182;2023-05-07T00:46:23;80472.00;;;11.70
12007;BMP180;6062;47.294;12.182;2023-05-07T00:48:50;80480.00;;;11.70
12007;BMP180;6062;47.294;12.182;2023-05-07T00:51:17;80483.00;;;11.70
12007;BMP180;6062;47.294;12.182;2023-05-07T00:53:44;80474.00;;;11.70
12007;BMP180;6062;47.294;12.182;2023-05-07T00:56:11;80483.00;;;11.70
12007;BMP180;6062;47.294;12.182;2023-05-07T00:58:37;80478.00;;;11.70
12007;BMP180;6062;47.294;12.182;2023-05-07T01:01:03;80479.00;;;11.60
12007;BMP180;6062;47.294;12.182;2023-05-07T01:03:29;80476.00;;;11.60
12007;BMP180;6062;47.294;12.182;2023-05-07T01:05:57;80472.00;;;11.60
12007;BMP180;6062;47.294;12.182;2023-05-07T01:08:23;80464.00;;;11.50
12007;BMP180;6062;47.294;12.182;2023-05-07T01:10:52;80470.00;;;11.50
12007;BMP180;6062;47.294;12.182;2023-05-07T01:13:19;80466.00;;;11.40
12007;BMP180;6062;47.294;12.182;2023-05-07T01:15:45;80471.00;;;11.40
12007;BMP180;6062;47.294;12.182;2023-05-07T01:18:11;80468.00;;;11.40
12007;BMP180;6062;47.294;12.182;2023-05-07T01:20:36;80468.00;;;11.40
12007;BMP180;6062;47.294;12.182;2023-05-07T01:23:03;80460.00;;;11.40
12007;BMP180;6062;47.294;12.182;2023-05-07T01:25:29;80461.00;;;11.30
12007;BMP180;6062;47.294;12.182;2023-05-07T01:27:56;80467.00;;;11.30
12007;BMP180;6062;47.294;12.182;2023-05-07T01:30:22;80458.00;;;11.30
12007;BMP180;6062;47.294;12.182;2023-05-07T01:32:53;80459.00;;;11.30
12007;BMP180;6062;47.294;12.182;2023-05-07T01:35:27;80460.00;;;11.30
12007;BMP180;6062;47.294;12.182;2023-05-07T01:37:57;80470.00;;;11.30
12007;BMP180;6062;47.294;12.182;2023-05-07T01:40:24;80463.00;;;11.30
12007;BMP180;6062;47.294;12.182;2023-05-07T01:42:51;80456.00;;;11.30
12007;BMP180;6062;47.294;12.182;2023-05-07T01:45:17;80465.00;;;11.20
12007;BMP180;6062;47.294;12.182;2023-05-07T01:47:44;80464.00;;;11.20
12007;BMP180;6062;47.294;12.182;2023-05-07T01:50:10;80463.00;;;11.30
12007;BMP180;6062;47.294;12.182;2023-05-07T01:52:39;80461.00;;;11.20
12007;BMP180;6062;47.294;12.182;2023-05-07T01:55:06;80461.00;;;11.20
12007;BMP180;6062;47.294;12.182;2023-05-07T01:57:32;80452.00;;;11.20
12007;BMP180;6062;47.294;12.182;2023-05-07T01:59:57;80461.00;;;11.30
12007;BMP180;6062;47.294;12.182;2023-05-07T02:02:23;80460.00;;;11.30
12007;BMP180;6062;47.294;12.182;2023-05-07T02:04:49;80456.00;;;11.30
12007;BMP180;6062;47.294;12.182;2023-05-07T02:07:15;80458.00;;;11.30
12007;BMP180;6062;47.294;12.182;2023-05-07T02:09:41;80457.00;;;11.30
12007;BMP180;6062;47.294;12.182;2023-05-07T02:12:06;80453.00;;;11.30
12007;BMP180;6062;47.294;12.182;2023-05-07T02:14:32;80454.00;;;11.30
12007;BMP180;6062;47.294;12.182;2023-05-07T02:16:58;80451.00;;;11.30
12007;BMP180;6062;47.294;12.182;2023-05-07T02:19:23;80460.00;;;11.40
12007;BMP180;6062;47.294;12.182;2023-05-07T02:21:49;80454.00;;;11.40
12007;BMP180;6062;47.294;12.182;2023-05-07T02:24:15;80461.00;;;11.30
12007;BMP180;6062;47.294;12.182;2023-05-07T02:26:41;80452.00;;;11.40
12007;BMP180;6062;47.294;12.182;2023-05-07T02:29:07;80454.00;;;11.30
12007;BMP180;6062;47.294;12.182;2023-05-07T02:31:33;80449.00;;;11.30
12007;BMP180;6062;47.294;12.182;2023-05-07T02:34:00;80447.00;;;11.30
12007;BMP180;6062;47.294;12.182;2023-05-07T02:36:26;80453.00;;;11.20
12007;BMP180;6062;47.294;12.182;2023-05-07T02:38:54;80457.00;;;11.20
12007;BMP180;6062;47.294;12.182;2023-05-07T02:41:20;80455.00;;;11.10
12007;BMP180;6062;47.294;12.182;2023-05-07T02:43:46;80454.00;;;11.10
12007;BMP180;6062;47.294;12.182;2023-05-07T02:46:12;80449.00;;;11.10
12007;BMP180;6062;47.294;12.182;2023-05-07T02:48:38;80452.00;;;11.00
12007;BMP180;6062;47.294;12.182;2023-05-07T02:51:04;80447.00;;;11.00
12007;BMP180;6062;47.294;12.182;2023-05-07T02:53:31;80452.00;;;11.00
12007;BMP180;6062;47.294;12.182;2023-05-07T02:55:58;80455.00;;;11.00
12007;BMP180;6062;47.294;12.182;2023-05-07T02:58:24;80457.00;;;11.00
12007;BMP180;6062;47.294;12.182;2023-05-07T03:00:50;80453.00;;;10.90
12007;BMP180;6062;47.294;12.182;2023-05-07T03:03:16;80455.00;;;10.90
12007;BMP180;6062;47.294;12.182;2023-05-07T03:05:42;80451.00;;;10.90
12007;BMP180;6062;47.294;12.182;2023-05-07T03:08:09;80451.00;;;10.90
12007;BMP180;6062;47.294;12.182;2023-05-07T03:10:36;80457.00;;;10.80
12007;BMP180;6062;47.294;12.182;2023-05-07T03:13:03;80441.00;;;10.80
12007;BMP180;6062;47.294;12.182;2023-05-07T03:15:29;80450.00;;;10.70
12007;BMP180;6062;47.294;12.182;2023-05-07T03:17:55;80447.00;;;10.70
12007;BMP180;6062;47.294;12.182;2023-05-07T03:20:21;80446.00;;;10.60
12007;BMP180;6062;47.294;12.182;2023-05-07T03:22:47;80448.00;;;10.60
12007;BMP180;6062;47.294;12.182;2023-05-07T03:25:13;80446.00;;;10.50
12007;BMP180;6062;47.294;12.182;2023-05-07T03:27:40;80440.00;;;10.50
12007;BMP180;6062;47.294;12.182;2023-05-07T03:30:08;80441.00;;;10.40
12007;BMP180;6062;47.294;12.182;2023-05-07T03:32:34;80442.00;;;10.40
12007;BMP180;6062;47.294;12.182;2023-05-07T03:35:01;80436.00;;;10.40
12007;BMP180;6062;47.294;12.182;2023-05-07T03:37:27;80440.00;;;10.40
12007;BMP180;6062;47.294;12.182;2023-05-07T03:39:53;80446.00;;;10.40
12007;BMP180;6062;47.294;12.182;2023-05-07T03:42:19;80437.00;;;10.40
12007;BMP180;6062;47.294;12.182;2023-05-07T03:44:45;80429.00;;;10.40
12007;BMP180;6062;47.294;12.182;2023-05-07T03:47:11;80431.00;;;10.40
12007;BMP180;6062;47.294;12.182;2023-05-07T03:49:36;80419.00;;;10.40
12007;BMP180;6062;47.294;12.182;2023-05-07T03:52:02;80430.00;;;10.40
12007;BMP180;6062;47.294;12.182;2023-05-07T03:54:28;80438.00;;;10.40
12007;BMP180;6062;47.294;12.182;2023-05-07T03:56:54;80431.00;;;10.40
12007;BMP180;6062;47.294;12.182;2023-05-07T03:59:19;80430.00;;;10.50
12007;BMP180;6062;47.294;12.182;2023-05-07T04:01:45;80440.00;;;10.50
12007;BMP180;6062;47.294;12.182;2023-05-07T04:04:11;80433.00;;;10.50
12007;BMP180;6062;47.294;12.182;2023-05-07T04:06:37;80436.00;;;10.50
12007;BMP180;6062;47.294;12.182;2023-05-07T04:09:03;80439.00;;;10.50
12007;BMP180;6062;47.294;12.182;2023-05-07T04:11:29;80440.00;;;10.40
12007;BMP180;6062;47.294;12.182;2023-05-07T04:13:54;80437.00;;;10.40
12007;BMP180;6062;47.294;12.182;2023-05-07T04:16:20;80444.00;;;10.40
12007;BMP180;6062;47.294;12.182;2023-05-07T04:18:46;80445.00;;;10.40
12007;BMP180;6062;47.294;12.182;2023-05-07T04:21:19;80445.00;;;10.50
12007;BMP180;6062;47.294;12.182;2023-05-07T04:23:49;80442.00;;;10.50
12007;BMP180;6062;47.294;12.182;2023-05-07T04:26:15;80446.00;;;10.50
12007;BMP180;6062;47.294;12.182;2023-05-07T04:28:41;80443.00;;;10.60
12007;BMP180;6062;47.294;12.182;2023-05-07T04:31:08;80448.00;;;10.70
12007;BMP180;6062;47.294;12.182;2023-05-07T04:33:34;80457.00;;;10.80
12007;BMP180;6062;47.294;12.182;2023-05-07T04:36:03;80456.00;;;10.80
12007;BMP180;6062;47.294;12.182;2023-05-07T04:38:32;80445.00;;;10.90
12007;BMP180;6062;47.294;12.182;2023-05-07T04:41:03;80456.00;;;11.00
12007;BMP180;6062;47.294;12.182;2023-05-07T04:43:29;80457.00;;;11.00
12007;BMP180;6062;47.294;12.182;2023-05-07T04:45:55;80458.00;;;11.10
12007;BMP180;6062;47.294;12.182;2023-05-07T04:48:21;80464.00;;;11.10
12007;BMP180;6062;47.294;12.182;2023-05-07T04:50:48;80459.00;;;11.20
12007;BMP180;6062;47.294;12.182;2023-05-07T04:53:14;80471.00;;;11.20
12007;BMP180;6062;47.294;12.182;2023-05-07T04:55:40;80471.00;;;11.20
12007;BMP180;6062;47.294;12.182;2023-05-07T04:58:05;80469.00;;;11.30
12007;BMP180;6062;47.294;12.182;2023-05-07T05:00:31;80469.00;;;11.30
12007;BMP180;6062;47.294;12.182;2023-05-07T05:02:57;80478.00;;;11.30
12007;BMP180;6062;47.294;12.182;2023-05-07T05:05:22;80466.00;;;11.40
12007;BMP180;6062;47.294;12.182;2023-05-07T05:07:48;80467.00;;;11.40
12007;BMP180;6062;47.294;12.182;2023-05-07T05:10:14;80472.00;;;11.50
12007;BMP180;6062;47.294;12.182;2023-05-07T05:12:39;80471.00;;;11.50
12007;BMP180;6062;47.294;12.182;2023-05-07T05:15:06;80475.00;;;11.60
12007;BMP180;6062;47.294;12.182;2023-05-07T05:17:32;80471.00;;;11.80
12007;BMP180;6062;47.294;12.182;2023-05-07T05:20:00;80477.00;;;12.00
12007;BMP180;6062;47.294;12.182;2023-05-07T05:22:25;80472.00;;;12.10
12007;BMP180;6062;47.294;12.182;2023-05-07T05:24:52;80463.00;;;12.30
12007;BMP180;6062;47.294;12.182;2023-05-07T05:27:17;80473.00;;;12.50
12007;BMP180;6062;47.294;12.182;2023-05-07T05:29:43;80475.00;;;12.70
12007;BMP180;6062;47.294;12.182;2023-05-07T05:32:09;80471.00;;;13.00
12007;BMP180;6062;47.294;12.182;2023-05-07T05:34:35;80475.00;;;13.20
12007;BMP180;6062;47.294;12.182;2023-05-07T05:37:01;80490.00;;;13.50
12007;BMP180;6062;47.294;12.182;2023-05-07T05:39:26;80487.00;;;13.80
12007;BMP180;6062;47.294;12.182;2023-05-07T05:41:52;80489.00;;;14.00
12007;BMP180;6062;47.294;12.182;2023-05-07T05:44:18;80487.00;;;14.20
12007;BMP180;6062;47.294;12.182;2023-05-07T05:46:44;80478.00;;;14.50
12007;BMP180;6062;47.294;12.182;2023-05-07T05:49:09;80485.00;;;14.70
12007;BMP180;6062;47.294;12.182;2023-05-07T05:51:35;80487.00;;;15.00
12007;BMP180;6062;47.294;12.182;2023-05-07T05:54:01;80493.00;;;15.20
12007;BMP180;6062;47.294;12.182;2023-05-07T05:56:27;80492.00;;;15.50
12007;BMP180;6062;47.294;12.182;2023-05-07T05:58:52;80495.00;;;15.80
12007;BMP180;6062;47.294;12.182;2023-05-07T06:01:18;80490.00;;;16.10
12007;BMP180;6062;47.294;12.182;2023-05-07T06:03:44;80497.00;;;16.40
12007;BMP180;6062;47.294;12.182;2023-05-07T06:06:10;80492.00;;;16.60
12007;BMP180;6062;47.294;12.182;2023-05-07T06:08:36;80495.00;;;16.90
12007;BMP180;6062;47.294;12.182;2023-05-07T06:11:02;80492.00;;;17.20
12007;BMP180;6062;47.294;12.182;2023-05-07T06:13:28;80494.00;;;17.50
12007;BMP180;6062;47.294;12.182;2023-05-07T06:15:54;80494.00;;;17.70
12007;BMP180;6062;47.294;12.182;2023-05-07T06:18:19;80497.00;;;18.00
12007;BMP180;6062;47.294;12.182;2023-05-07T06:20:45;80504.00;;;18.40
12007;BMP180;6062;47.294;12.182;2023-05-07T06:23:11;80498.00;;;18.70
12007;BMP180;6062;47.294;12.182;2023-05-07T06:25:37;80495.00;;;19.00
12007;BMP180;6062;47.294;12.182;2023-05-07T06:28:02;80494.00;;;19.40
12007;BMP180;6062;47.294;12.182;2023-05-07T06:30:28;80499.00;;;19.80
12007;BMP180;6062;47.294;12.182;2023-05-07T06:32:54;80500.00;;;20.20
12007;BMP180;6062;47.294;12.182;2023-05-07T06:35:19;80500.00;;;20.70
12007;BMP180;6062;47.294;12.182;2023-05-07T06:37:45;80509.00;;;21.10
12007;BMP180;6062;47.294;12.182;2023-05-07T06:40:11;80501.00;;;21.60
12007;BMP180;6062;47.294;12.182;2023-05-07T06:42:37;80503.00;;;22.10
12007;BMP180;6062;47.294;12.182;2023-05-07T06:45:04;80502.00;;;22.70
12007;BMP180;6062;47.294;12.182;2023-05-07T06:47:29;80501.00;;;23.30
12007;BMP180;6062;47.294;12.182;2023-05-07T06:49:55;80513.00;;;24.00
12007;BMP180;6062;47.294;12.182;2023-05-07T06:52:21;80514.00;;;24.70
12007;BMP180;6062;47.294;12.182;2023-05-07T06:54:47;80513.00;;;25.40
12007;BMP180;6062;47.294;12.182;2023-05-07T06:57:12;80527.00;;;26.00
12007;BMP180;6062;47.294;12.182;2023-05-07T06:59:38;80517.00;;;26.60
12007;BMP180;6062;47.294;12.182;2023-05-07T07:02:04;80525.00;;;27.00
12007;BMP180;6062;47.294;12.182;2023-05-07T07:04:30;80527.00;;;27.40
12007;BMP180;6062;47.294;12.182;2023-05-07T07:06:56;80528.00;;;27.80
12007;BMP180;6062;47.294;12.182;2023-05-07T07:09:22;80529.00;;;28.10
12007;BMP180;6062;47.294;12.182;2023-05-07T07:11:48;80526.00;;;28.40
12007;BMP180;6062;47.294;12.182;2023-05-07T07:14:13;80532.00;;;28.70
12007;BMP180;6062;47.294;12.182;2023-05-07T07:16:39;80529.00;;;28.80
12007;BMP180;6062;47.294;12.182;2023-05-07T07:19:06;80530.00;;;28.80
12007;BMP180;6062;47.294;12.182;2023-05-07T07:21:32;80536.00;;;28.80
12007;BMP180;6062;47.294;12.182;2023-05-07T07:23:57;80534.00;;;28.70
12007;BMP180;6062;47.294;12.182;2023-05-07T07:26:23;80529.00;;;28.70
12007;BMP180;6062;47.294;12.182;2023-05-07T07:28:49;80530.00;;;28.60
12007;BMP180;6062;47.294;12.182;2023-05-07T07:31:17;80532.00;;;28.50
12007;BMP180;6062;47.294;12.182;2023-05-07T07:33:43;80532.00;;;28.50
12007;BMP180;6062;47.294;12.182;2023-05-07T07:36:09;80527.00;;;28.40
12007;BMP180;6062;47.294;12.182;2023-05-07T07:38:35;80531.00;;;28.30
12007;BMP180;6062;47.294;12.182;2023-05-07T07:41:01;80535.00;;;28.10
12007;BMP180;6062;47.294;12.182;2023-05-07T07:43:27;80540.00;;;27.90
12007;BMP180;6062;47.294;12.182;2023-05-07T07:45:53;80546.00;;;27.70
12007;BMP180;6062;47.294;12.182;2023-05-07T07:48:19;80546.00;;;27.50
12007;BMP180;6062;47.294;12.182;2023-05-07T07:50:45;80544.00;;;27.20
12007;BMP180;6062;47.294;12.182;2023-05-07T07:53:13;80548.00;;;27.10
12007;BMP180;6062;47.294;12.182;2023-05-07T07:55:39;80541.00;;;26.90
12007;BMP180;6062;47.294;12.182;2023-05-07T07:58:06;80547.00;;;26.90
12007;BMP180;6062;47.294;12.182;2023-05-07T08:00:31;80546.00;;;26.80
12007;BMP180;6062;47.294;12.182;2023-05-07T08:02:57;80549.00;;;26.70
12007;BMP180;6062;47.294;12.182;2023-05-07T08:05:24;80548.00;;;26.70
12007;BMP180;6062;47.294;12.182;2023-05-07T08:07:50;80544.00;;;26.80
12007;BMP180;6062;47.294;12.182;2023-05-07T08:10:19;80555.00;;;27.00
12007;BMP180;6062;47.294;12.182;2023-05-07T08:12:50;80556.00;;;27.30
12007;BMP180;6062;47.294;12.182;2023-05-07T08:15:17;80556.00;;;27.50
12007;BMP180;6062;47.294;12.182;2023-05-07T08:17:43;80556.00;;;27.70
12007;BMP180;6062;47.294;12.182;2023-05-07T08:20:09;80556.00;;;27.80
12007;BMP180;6062;47.294;12.182;2023-05-07T08:22:36;80554.00;;;27.80
12007;BMP180;6062;47.294;12.182;2023-05-07T08:25:02;80559.00;;;27.80
12007;BMP180;6062;47.294;12.182;2023-05-07T08:27:28;80562.00;;;27.90
12007;BMP180;6062;47.294;12.182;2023-05-07T08:29:54;80562.00;;;28.10
12007;BMP180;6062;47.294;12.182;2023-05-07T08:32:20;80566.00;;;28.40
12007;BMP180;6062;47.294;12.182;2023-05-07T08:34:47;80558.00;;;28.90
12007;BMP180;6062;47.294;12.182;2023-05-07T08:37:13;80560.00;;;29.40
12007;BMP180;6062;47.294;12.182;2023-05-07T08:39:39;80567.00;;;29.80
12007;BMP180;6062;47.294;12.182;2023-05-07T08:42:06;80572.00;;;30.00
12007;BMP180;6062;47.294;12.182;2023-05-07T08:44:34;80568.00;;;30.20
12007;BMP180;6062;47.294;12.182;2023-05-07T08:47:01;80572.00;;;30.30
12007;BMP180;6062;47.294;12.182;2023-05-07T08:49:28;80576.00;;;30.30
12007;BMP180;6062;47.294;12.182;2023-05-07T08:51:54;80577.00;;;30.30
12007;BMP180;6062;47.294;12.182;2023-05-07T08:54:21;80577.00;;;30.20
12007;BMP180;6062;47.294;12.182;2023-05-07T08:56:47;80576.00;;;30.00
12007;BMP180;6062;47.294;12.182;2023-05-07T08:59:13;80578.00;;;29.90
12007;BMP180;6062;47.294;12.182;2023-05-07T09:01:39;80578.00;;;29.80
12007;BMP180;6062;47.294;12.182;2023-05-07T09:04:05;80575.00;;;29.70
12007;BMP180;6062;47.294;12.182;2023-05-07T09:06:33;80576.00;;;29.70
12007;BMP180;6062;47.294;12.182;2023-05-07T09:09:00;80578.00;;;29.60
12007;BMP180;6062;47.294;12.182;2023-05-07T09:11:27;80573.00;;;29.50
12007;BMP180;6062;47.294;12.182;2023-05-07T09:13:57;80574.00;;;29.50
12007;BMP180;6062;47.294;12.182;2023-05-07T09:16:29;80582.00;;;29.50
12007;BMP180;6062;47.294;12.182;2023-05-07T09:18:59;80579.00;;;29.50
12007;BMP180;6062;47.294;12.182;2023-05-07T09:21:26;80581.00;;;29.60
12007;BMP180;6062;47.294;12.182;2023-05-07T09:23:54;80579.00;;;29.60
12007;BMP180;6062;47.294;12.182;2023-05-07T09:26:24;80577.00;;;29.70
12007;BMP180;6062;47.294;12.182;2023-05-07T09:28:51;80571.00;;;29.80
12007;BMP180;6062;47.294;12.182;2023-05-07T09:31:17;80571.00;;;30.00
12007;BMP180;6062;47.294;12.182;2023-05-07T09:33:43;80575.00;;;30.10
12007;BMP180;6062;47.294;12.182;2023-05-07T09:36:09;80570.00;;;30.10
12007;BMP180;6062;47.294;12.182;2023-05-07T09:38:37;80571.00;;;30.10
12007;BMP180;6062;47.294;12.182;2023-05-07T09:41:05;80581.00;;;30.20
12007;BMP180;6062;47.294;12.182;2023-05-07T09:43:36;80573.00;;;30.20
12007;BMP180;6062;47.294;12.182;2023-05-07T09:46:29;80570.00;;;30.30
12007;BMP180;6062;47.294;12.182;2023-05-07T09:48:57;80580.00;;;30.40
12007;BMP180;6062;47.294;12.182;2023-05-07T09:51:39;80578.00;;;30.40
12007;BMP180;6062;47.294;12.182;2023-05-07T09:54:07;80579.00;;;30.40
12007;BMP180;6062;47.294;12.182;2023-05-07T09:56:33;80581.00;;;30.40
12007;BMP180;6062;47.294;12.182;2023-05-07T09:59:00;80586.00;;;30.40
12007;BMP180;6062;47.294;12.182;2023-05-07T10:01:27;80582.00;;;30.20
12007;BMP180;6062;47.294;12.182;2023-05-07T10:03:53;80578.00;;;30.00
12007;BMP180;6062;47.294;12.182;2023-05-07T10:06:20;80579.00;;;29.70
12007;BMP180;6062;47.294;12.182;2023-05-07T10:08:47;80573.00;;;29.30
12007;BMP180;6062;47.294;12.182;2023-05-07T10:11:14;80574.00;;;29.00
12007;BMP180;6062;47.294;12.182;2023-05-07T10:13:42;80584.00;;;28.50
12007;BMP180;6062;47.294;12.182;2023-05-07T10:16:08;80566.00;;;28.10
12007;BMP180;6062;47.294;12.182;2023-05-07T10:18:34;80576.00;;;27.60
12007;BMP180;6062;47.294;12.182;2023-05-07T10:21:20;80565.00;;;27.10
12007;BMP180;6062;47.294;12.182;2023-05-07T10:23:58;80573.00;;;26.60
12007;BMP180;6062;47.294;12.182;2023-05-07T10:26:27;80571.00;;;26.10
12007;BMP180;6062;47.294;12.182;2023-05-07T10:29:03;80573.00;;;25.60
12007;BMP180;6062;47.294;12.182;2023-05-07T10:32:37;80568.00;;;25.00
12007;BMP180;6062;47.294;12.182;2023-05-07T10:35:16;80566.00;;;24.60
12007;BMP180;6062;47.294;12.182;2023-05-07T10:37:44;80575.00;;;24.30
12007;BMP180;6062;47.294;12.182;2023-05-07T10:40:11;80574.00;;;24.10
12007;BMP180;6062;47.294;12.182;2023-05-07T10:42:37;80575.00;;;23.90
12007;BMP180;6062;47.294;12.182;2023-05-07T10:45:14;80567.00;;;23.70
12007;BMP180;6062;47.294;12.182;2023-05-07T10:50:31;80580.00;;;23.40
12007;BMP180;6062;47.294;12.182;2023-05-07T10:58:37;80580.00;;;23.00
12007;BMP180;6062;47.294;12.182;2023-05-07T11:01:03;80575.00;;;22.90
12007;BMP180;6062;47.294;12.182;2023-05-07T11:03:29;80579.00;;;22.90
12007;BMP180;6062;47.294;12.182;2023-05-07T11:06:15;80583.00;;;22.80
12007;BMP180;6062;47.294;12.182;2023-05-07T11:08:59;80575.00;;;22.80
12007;BMP180;6062;47.294;12.182;2023-05-07T11:11:50;80570.00;;;22.90
12007;BMP180;6062;47.294;12.182;2023-05-07T11:17:07;80573.00;;;23.30
12007;BMP180;6062;47.294;12.182;2023-05-07T11:19:54;80571.00;;;23.60
12007;BMP180;6062;47.294;12.182;2023-05-07T11:25:03;80576.00;;;24.00
12007;BMP180;6062;47.294;12.182;2023-05-07T11:27:29;80579.00;;;24.20
12007;BMP180;6062;47.294;12.182;2023-05-07T11:29:56;80578.00;;;24.40
12007;BMP180;6062;47.294;12.182;2023-05-07T11:32:30;80579.00;;;24.50
12007;BMP180;6062;47.294;12.182;2023-05-07T11:34:59;80576.00;;;24.50
12007;BMP180;6062;47.294;12.182;2023-05-07T11:37:27;80580.00;;;24.60
12007;BMP180;6062;47.294;12.182;2023-05-07T11:40:05;80583.00;;;24.60
12007;BMP180;6062;47.294;12.182;2023-05-07T11:42:37;80579.00;;;24.30
12007;BMP180;6062;47.294;12.182;2023-05-07T11:45:05;80584.00;;;24.10
12007;BMP180;6062;47.294;12.182;2023-05-07T11:47:32;80570.00;;;23.90
12007;BMP180;6062;47.294;12.182;2023-05-07T11:50:06;80575.00;;;23.70
12007;BMP180;6062;47.294;12.182;2023-05-07T11:52:33;80582.00;;;23.60
12007;BMP180;6062;47.294;12.182;2023-05-07T11:55:01;80576.00;;;23.60
12007;BMP180;6062;47.294;12.182;2023-05-07T11:57:29;80581.00;;;23.60
12007;BMP180;6062;47.294;12.182;2023-05-07T11:59:56;80578.00;;;23.80
12007;BMP180;6062;47.294;12.182;2023-05-07T12:02:23;80577.00;;;23.80
12007;BMP180;6062;47.294;12.182;2023-05-07T12:04:51;80571.00;;;23.90
12007;BMP180;6062;47.294;12.182;2023-05-07T12:07:17;80568.00;;;24.00
12007;BMP180;6062;47.294;12.182;2023-05-07T12:09:46;80576.00;;;23.90
12007;BMP180;6062;47.294;12.182;2023-05-07T12:12:13;80578.00;;;23.80
12007;BMP180;6062;47.294;12.182;2023-05-07T12:14:42;80574.00;;;23.70
12007;BMP180;6062;47.294;12.182;2023-05-07T12:17:11;80578.00;;;23.40
12007;BMP180;6062;47.294;12.182;2023-05-07T12:19:40;80572.00;;;23.10
12007;BMP180;6062;47.294;12.182;2023-05-07T12:22:10;80583.00;;;23.00
12007;BMP180;6062;47.294;12.182;2023-05-07T12:24:56;80581.00;;;22.90
12007;BMP180;6062;47.294;12.182;2023-05-07T12:27:22;80577.00;;;22.80
12007;BMP180;6062;47.294;12.182;2023-05-07T12:29:50;80575.00;;;22.80
12007;BMP180;6062;47.294;12.182;2023-05-07T12:32:19;80562.00;;;22.90
12007;BMP180;6062;47.294;12.182;2023-05-07T12:34:47;80568.00;;;22.90
12007;BMP180;6062;47.294;12.182;2023-05-07T12:37:15;80570.00;;;22.80
12007;BMP180;6062;47.294;12.182;2023-05-07T12:40:07;80568.00;;;22.70
12007;BMP180;6062;47.294;12.182;2023-05-07T12:42:36;80571.00;;;22.60
12007;BMP180;6062;47.294;12.182;2023-05-07T12:45:13;80570.00;;;22.60
12007;BMP180;6062;47.294;12.182;2023-05-07T12:47:47;80576.00;;;22.50
12007;BMP180;6062;47.294;12.182;2023-05-07T12:50:14;80573.00;;;22.40
12007;BMP180;6062;47.294;12.182;2023-05-07T12:52:41;80575.00;;;22.20
12007;BMP180;6062;47.294;12.182;2023-05-07T12:55:08;80574.00;;;22.10
12007;BMP180;6062;47.294;12.182;2023-05-07T12:57:47;80562.00;;;22.00
12007;BMP180;6062;47.294;12.182;2023-05-07T13:00:14;80563.00;;;21.90
12007;BMP180;6062;47.294;12.182;2023-05-07T13:02:42;80563.00;;;21.90
12007;BMP180;6062;47.294;12.182;2023-05-07T13:05:10;80566.00;;;21.90
12007;BMP180;6062;47.294;12.182;2023-05-07T13:07:36;80561.00;;;21.80
12007;BMP180;6062;47.294;12.182;2023-05-07T13:10:03;80564.00;;;21.80
12007;BMP180;6062;47.294;12.182;2023-05-07T13:12:29;80566.00;;;21.80
12007;BMP180;6062;47.294;12.182;2023-05-07T13:14:55;80555.00;;;21.80
12007;BMP180;6062;47.294;12.182;2023-05-07T13:17:21;80550.00;;;21.80
12007;BMP180;6062;47.294;12.182;2023-05-07T13:19:46;80559.00;;;21.80
12007;BMP180;6062;47.294;12.182;2023-05-07T13:22:12;80554.00;;;21.80
12007;BMP180;6062;47.294;12.182;2023-05-07T13:24:38;80551.00;;;21.80
12007;BMP180;6062;47.294;12.182;2023-05-07T13:27:07;80547.00;;;21.80
12007;BMP180;6062;47.294;12.182;2023-05-07T13:29:32;80545.00;;;21.80
12007;BMP180;6062;47.294;12.182;2023-05-07T13:31:58;80538.00;;;21.90
12007;BMP180;6062;47.294;12.182;2023-05-07T13:34:24;80537.00;;;21.90
12007;BMP180;6062;47.294;12.182;2023-05-07T13:36:50;80545.00;;;21.90
12007;BMP180;6062;47.294;12.182;2023-05-07T13:39:16;80545.00;;;21.80
12007;BMP180;6062;47.294;12.182;2023-05-07T13:41:41;80542.00;;;21.80
12007;BMP180;6062;47.294;12.182;2023-05-07T13:44:07;80552.00;;;21.70
12007;BMP180;6062;47.294;12.182;2023-05-07T13:46:33;80560.00;;;21.60
12007;BMP180;6062;47.294;12.182;2023-05-07T13:48:58;80552.00;;;21.60
12007;BMP180;6062;47.294;12.182;2023-05-07T13:51:24;80545.00;;;21.50
12007;BMP180;6062;47.294;12.182;2023-05-07T13:53:51;80541.00;;;21.40
12007;BMP180;6062;47.294;12.182;2023-05-07T13:56:18;80550.00;;;21.40
12007;BMP180;6062;47.294;12.182;2023-05-07T13:58:43;80548.00;;;21.30
12007;BMP180;6062;47.294;12.182;2023-05-07T14:01:09;80546.00;;;21.30
12007;BMP180;6062;47.294;12.182;2023-05-07T14:03:35;80561.00;;;21.20
12007;BMP180;6062;47.294;12.182;2023-05-07T14:06:03;80558.00;;;21.10
12007;BMP180;6062;47.294;12.182;2023-05-07T14:08:29;80555.00;;;21.00
12007;BMP180;6062;47.294;12.182;2023-05-07T14:10:55;80552.00;;;20.90
12007;BMP180;6062;47.294;12.182;2023-05-07T14:13:22;80552.00;;;20.90
12007;BMP180;6062;47.294;12.182;2023-05-07T14:15:47;80549.00;;;20.80
12007;BMP180;6062;47.294;12.182;2023-05-07T14:18:15;80553.00;;;20.80
12007;BMP180;6062;47.294;12.182;2023-05-07T14:20:41;80554.00;;;20.70
12007;BMP180;6062;47.294;12.182;2023-05-07T14:23:09;80550.00;;;20.70